Time,TemperatureF,DewpointF,PressureIn,WindDirection,WindDirectionDegrees,WindSpeedMPH,WindSpeedGustMPH,Humidity,HourlyPrecipIn,Conditions,Clouds,dailyrainin,SoftwareType,DateUTC
2013-10-25 00:14:00,42.0,32.0,29.77,South,180,0.0,2.0,68,0.00,,,0.00,,2013-10-25 04:14:00,
2013-10-25 00:24:00,42.0,33.0,29.78,SSW,202,1.0,3.0,69,0.00,,,0.00,,2013-10-25 04:24:00,
2013-10-25 00:34:00,42.0,33.0,29.78,SSW,202,1.0,3.0,69,0.00,,,0.00,,2013-10-25 04:34:00,
2013-10-25 00:44:00,42.0,33.0,29.78,SSW,202,1.0,3.0,69,0.00,,,0.00,,2013-10-25 04:44:00,
2013-10-25 00:54:00,42.0,33.0,29.78,SSW,202,1.0,3.0,69,0.00,,,0.00,,2013-10-25 04:54:00,
2013-10-25 09:11:00,32.0,31.0,29.91,SSE,150,0.0,1.0,95,0.00,,,0.00,,2013-10-25 13:11:00,
2013-10-25 09:21:00,34.0,33.0,29.91,SSE,150,0.0,1.0,95,0.00,,,0.00,,2013-10-25 13:21:00,
2013-10-25 09:42:00,35.0,34.0,29.91,SW,215,2.0,5.0,95,0.00,,,0.00,,2013-10-25 13:42:00,
2013-10-25 09:52:00,39.0,35.0,29.91,SSE,158,0.0,5.0,85,0.00,,,0.00,,2013-10-25 13:52:00,
2013-10-25 10:11:00,41.0,36.0,29.91,East,79,1.0,5.0,82,0.00,,,0.00,,2013-10-25 14:11:00,
2013-10-25 10:22:00,43.0,35.0,29.91,West,281,1.0,7.0,74,0.00,,,0.00,,2013-10-25 14:22:00,
2013-10-25 10:42:00,45.0,35.0,29.91,NE,38,4.0,9.0,69,0.00,,,0.00,,2013-10-25 14:42:00,
2013-10-25 10:52:00,47.0,34.0,29.92,NNE,16,1.0,9.0,61,0.00,,,0.00,,2013-10-25 14:52:00,
2013-10-25 11:11:00,47.0,34.0,29.92,ESE,107,0.0,10.0,60,0.00,,,0.00,,2013-10-25 15:11:00,
2013-10-25 11:22:00,46.0,32.0,29.92,North,360,4.0,8.0,58,0.00,,,0.00,,2013-10-25 15:22:00,
2013-10-25 11:43:00,46.0,33.0,29.92,ESE,105,1.0,6.0,61,0.00,,,0.00,,2013-10-25 15:43:00,
2013-10-25 11:53:00,48.0,31.0,29.92,ESE,119,2.0,8.0,52,0.00,,,0.00,,2013-10-25 15:53:00,
2013-10-25 12:13:00,47.0,32.0,29.93,SSE,161,3.0,8.0,55,0.00,,,0.00,,2013-10-25 16:13:00,
2013-10-25 12:23:00,47.0,30.0,29.93,ENE,62,2.0,7.0,52,0.00,,,0.00,,2013-10-25 16:23:00,
2013-10-25 12:43:00,50.0,33.0,29.92,NNW,340,4.0,12.0,52,0.00,,,0.00,,2013-10-25 16:43:00,
2013-10-25 12:53:00,50.0,32.0,29.92,NNE,13,2.0,8.0,49,0.00,,,0.00,,2013-10-25 16:53:00,
2013-10-25 13:13:00,49.0,32.0,29.91,NE,49,3.0,7.0,51,0.00,,,0.00,,2013-10-25 17:13:00,
2013-10-25 13:23:00,50.0,31.0,29.91,NNW,345,3.0,10.0,48,0.00,,,0.00,,2013-10-25 17:23:00,
2013-10-25 13:43:00,50.0,32.0,29.91,NW,319,1.0,12.0,49,0.00,,,0.00,,2013-10-25 17:43:00,
2013-10-25 13:52:00,49.0,30.0,29.91,SSE,163,2.0,6.0,47,0.00,,,0.00,,2013-10-25 17:52:00,
2013-10-25 14:12:00,49.0,31.0,29.91,NW,304,2.0,8.0,49,0.00,,,0.00,,2013-10-25 18:12:00,
2013-10-25 14:22:00,50.0,31.0,29.91,NNW,336,5.0,11.0,47,0.00,,,0.00,,2013-10-25 18:22:00,
2013-10-25 14:42:00,51.0,31.0,29.91,NNW,346,2.0,6.0,46,0.00,,,0.00,,2013-10-25 18:42:00,
2013-10-25 14:52:00,53.0,31.0,29.91,NNE,31,5.0,9.0,42,0.00,,,0.00,,2013-10-25 18:52:00,
2013-10-25 15:11:00,52.0,30.0,29.91,NW,315,2.0,10.0,43,0.00,,,0.00,,2013-10-25 19:11:00,
2013-10-25 15:22:00,51.0,30.0,29.91,NNE,22,1.0,7.0,44,0.00,,,0.00,,2013-10-25 19:22:00,
2013-10-25 15:42:00,51.0,30.0,29.91,NE,40,3.0,11.0,45,0.00,,,0.00,,2013-10-25 19:42:00,
2013-10-25 15:52:00,52.0,29.0,29.91,East,83,3.0,7.0,41,0.00,,,0.00,,2013-10-25 19:52:00,
2013-10-25 16:12:00,51.0,29.0,29.92,NNW,331,1.0,8.0,42,0.00,,,0.00,,2013-10-25 20:12:00,
2013-10-25 16:22:00,51.0,28.0,29.92,North,5,3.0,8.0,41,0.00,,,0.00,,2013-10-25 20:22:00,
2013-10-25 16:42:00,51.0,28.0,29.92,NNE,18,1.0,7.0,41,0.00,,,0.00,,2013-10-25 20:42:00,
2013-10-25 16:52:00,50.0,28.0,29.93,East,81,0.0,11.0,43,0.00,,,0.00,,2013-10-25 20:52:00,
2013-10-25 17:11:00,49.0,29.0,29.93,North,5,1.0,10.0,45,0.00,,,0.00,,2013-10-25 21:11:00,
2013-10-25 17:22:00,48.0,28.0,29.93,NNW,330,2.0,6.0,46,0.00,,,0.00,,2013-10-25 21:22:00,
2013-10-25 17:43:00,47.0,28.0,29.93,West,267,1.0,8.0,47,0.00,,,0.00,,2013-10-25 21:43:00,
2013-10-25 17:54:00,47.0,28.0,29.94,North,5,1.0,7.0,48,0.00,,,0.00,,2013-10-25 21:54:00,
2013-10-25 18:13:00,46.0,29.0,29.94,North,350,0.0,3.0,51,0.00,,,0.00,,2013-10-25 22:13:00,
2013-10-25 18:24:00,45.0,27.0,29.95,NW,322,0.0,2.0,50,0.00,,,0.00,,2013-10-25 22:24:00,
2013-10-25 18:42:00,45.0,28.0,29.96,North,5,1.0,3.0,51,0.00,,,0.00,,2013-10-25 22:42:00,
2013-10-25 18:53:00,44.0,32.0,29.97,NW,317,0.0,6.0,63,0.00,,,0.00,,2013-10-25 22:53:00,
2013-10-25 19:12:00,44.0,28.0,29.98,WNW,293,1.0,7.0,53,0.00,,,0.00,,2013-10-25 23:12:00,
2013-10-25 19:23:00,44.0,28.0,29.98,SSE,148,0.0,5.0,53,0.00,,,0.00,,2013-10-25 23:23:00,
2013-10-25 19:42:00,43.0,28.0,29.99,ENE,59,0.0,1.0,54,0.00,,,0.00,,2013-10-25 23:42:00,
2013-10-25 19:52:00,42.0,28.0,30.00,ENE,59,0.0,1.0,57,0.00,,,0.00,,2013-10-25 23:52:00,
2013-10-25 20:11:00,41.0,28.0,30.01,ENE,59,0.0,1.0,60,0.00,,,0.00,,2013-10-26 00:11:00,
2013-10-25 20:22:00,40.0,29.0,30.01,NE,45,0.0,2.0,64,0.00,,,0.00,,2013-10-26 00:22:00,
2013-10-25 20:42:00,39.0,29.0,30.01,NE,45,0.0,1.0,66,0.00,,,0.00,,2013-10-26 00:42:00,
2013-10-25 20:52:00,38.0,28.0,30.01,NE,45,0.0,1.0,67,0.00,,,0.00,,2013-10-26 00:52:00,
2013-10-25 21:12:00,37.0,27.0,30.02,NE,45,0.0,0.0,68,0.00,,,0.00,,2013-10-26 01:12:00,
2013-10-25 21:22:00,36.0,28.0,30.02,NE,45,0.0,1.0,71,0.00,,,0.00,,2013-10-26 01:22:00,
2013-10-25 21:42:00,36.0,28.0,30.02,NE,45,0.0,0.0,72,0.00,,,0.00,,2013-10-26 01:42:00,
2013-10-25 21:52:00,35.0,28.0,30.03,NE,45,0.0,0.0,74,0.00,,,0.00,,2013-10-26 01:52:00,
2013-10-25 22:12:00,34.0,27.0,30.03,NE,45,0.0,0.0,75,0.00,,,0.00,,2013-10-26 02:12:00,
2013-10-25 22:22:00,33.0,27.0,30.03,NE,48,0.0,0.0,77,0.00,,,0.00,,2013-10-26 02:22:00,
2013-10-25 22:43:00,33.0,27.0,30.04,NE,48,0.0,0.0,78,0.00,,,0.00,,2013-10-26 02:43:00,
2013-10-25 22:52:00,32.0,26.0,30.04,NE,48,0.0,1.0,79,0.00,,,0.00,,2013-10-26 02:52:00,
2013-10-25 23:12:00,32.0,27.0,30.03,NE,48,0.0,1.0,81,0.00,,,0.00,,2013-10-26 03:12:00,
2013-10-25 23:22:00,32.0,27.0,30.04,NE,48,0.0,0.0,81,0.00,,,0.00,,2013-10-26 03:22:00,
2013-10-25 23:44:00,31.0,26.0,30.03,NE,48,0.0,1.0,83,0.00,,,0.00,,2013-10-26 03:44:00,
2013-10-25 23:54:00,31.0,27.0,30.03,NE,48,0.0,0.0,85,0.00,,,0.00,,2013-10-26 03:54:00,